Time;durP1;ratioP1;P1;durP2;ratioP2;P2;SDS_P1;SDS_P2;PMS_P1;PMS_P2;Temp;Humidity;BMP_temperature;BMP_pressure;BME280_temperature;BME280_humidity;BME280_pressure;Samples;Min_cycle;Max_cycle;Signal;HPM_P1;HPM_P2
2023/01/10 00:03:54;;;;;;;0.20;0.10;;;10.20;99.90;;;;;;21142166;28;20938;-72
2023/01/10 00:13:58;;;;;;;0.20;0.10;;;10.30;99.90;;;;;;21159609;28;20741;-71
2023/01/10 00:24:16;;;;;;;0.20;0.10;;;10.20;99.90;;;;;;21159357;28;20426;-72
2023/01/10 00:34:20;;;;;;;0.20;0.10;;;10.30;99.90;;;;;;21140074;28;20403;-72
2023/01/10 00:44:27;;;;;;;0.20;0.10;;;9.90;99.90;;;;;;21138852;28;20753;-72
2023/01/10 00:54:31;;;;;;;0.20;0.10;;;9.80;99.90;;;;;;21156792;28;20486;-72
2023/01/10 01:04:37;;;;;;;0.20;0.10;;;9.40;99.90;;;;;;21155786;28;20393;-71
2023/01/10 01:14:41;;;;;;;0.20;0.10;;;9.50;99.90;;;;;;21154265;28;20746;-72
2023/01/10 01:24:46;;;;;;;0.20;0.10;;;9.10;99.90;;;;;;21135997;28;20399;-71
2023/01/10 01:34:50;;;;;;;0.20;0.10;;;8.80;99.90;;;;;;21153577;28;20467;-71
2023/01/10 01:45:33;;;;;;;0.20;0.10;;;8.90;99.90;;;;;;21133976;28;20407;-71
2023/01/10 01:55:38;;;;;;;0.20;0.10;;;8.60;99.90;;;;;;21151058;28;20395;-71
2023/01/10 02:05:45;;;;;;;0.20;0.10;;;8.20;99.90;;;;;;21132674;28;20505;-71
2023/01/10 02:15:49;;;;;;;0.20;0.10;;;8.70;99.90;;;;;;21132319;28;20399;-72
2023/01/10 02:26:28;;;;;;;0.20;0.10;;;8.60;99.90;;;;;;21130899;28;20743;-72
2023/01/10 02:36:43;;;;;;;0.20;0.00;;;9.00;99.90;;;;;;21130164;28;20529;-72
2023/01/10 02:46:48;;;;;;;0.20;0.10;;;9.30;99.90;;;;;;21147546;28;20413;-71
2023/01/10 02:57:17;;;;;;;0.20;0.10;;;8.60;99.90;;;;;;21129018;28;20822;-73
2023/01/10 03:07:26;;;;;;;0.20;0.10;;;8.10;99.90;;;;;;21128584;28;20718;-73
2023/01/10 03:17:31;;;;;;;0.20;0.10;;;8.00;99.90;;;;;;21127920;28;20395;-72
2023/01/10 03:27:44;;;;;;;0.20;0.10;;;7.70;99.90;;;;;;21145702;28;20474;-72
2023/01/10 03:37:55;;;;;;;0.20;0.10;;;7.50;99.90;;;;;;21145613;28;20399;-73
2023/01/10 03:48:02;;;;;;;0.20;0.10;;;7.90;99.90;;;;;;21144870;28;20925;-71
2023/01/10 03:58:08;;;;;;;0.20;0.10;;;8.00;99.90;;;;;;21126858;28;20426;-70
2023/01/10 04:08:11;;;;;;;0.20;0.10;;;7.50;99.90;;;;;;21144770;28;20742;-71
2023/01/10 04:18:18;;;;;;;0.20;0.10;;;7.50;99.90;;;;;;21126335;28;20911;-71
2023/01/10 04:28:21;;;;;;;0.20;0.10;;;7.60;99.90;;;;;;21158823;28;20505;-72
2023/01/10 04:38:28;;;;;;;0.20;0.10;;;7.90;99.90;;;;;;21157954;28;20413;-73
2023/01/10 04:48:32;;;;;;;0.20;0.10;;;7.90;99.90;;;;;;21122245;28;20406;-72
2023/01/10 04:58:38;;;;;;;0.20;0.10;;;7.80;99.90;;;;;;21118458;28;20451;-73
2023/01/10 05:08:42;;;;;;;0.20;0.10;;;7.90;99.90;;;;;;21134429;28;20403;-70
2023/01/10 05:18:47;;;;;;;0.20;0.10;;;8.00;99.90;;;;;;21153163;28;20444;-71
2023/01/10 05:28:51;;;;;;;0.20;0.10;;;8.00;99.90;;;;;;21120491;28;20479;-71
2023/01/10 05:38:56;;;;;;;0.20;0.10;;;8.00;99.90;;;;;;21151398;28;20406;-70
2023/01/10 05:49:01;;;;;;;0.20;0.10;;;8.00;99.90;;;;;;21152391;28;20776;-71
2023/01/10 05:59:06;;;;;;;0.20;0.10;;;8.20;99.90;;;;;;21151301;28;20406;-68
2023/01/10 06:09:29;;;;;;;0.20;0.10;;;8.20;99.90;;;;;;21131059;28;20410;-70
2023/01/10 06:19:34;;;;;;;0.20;0.10;;;8.00;99.90;;;;;;21148413;28;20398;-70
2023/01/10 06:29:38;;;;;;;0.20;0.10;;;8.10;99.90;;;;;;21112549;28;20451;-71
2023/01/10 06:39:45;;;;;;;0.20;0.10;;;8.10;99.90;;;;;;21147320;28;20451;-71
2023/01/10 06:49:49;;;;;;;0.20;0.10;;;8.00;99.90;;;;;;21058200;28;21218;-72
2023/01/10 06:59:55;;;;;;;0.20;0.10;;;8.00;99.90;;;;;;21056424;28;20392;-68
2023/01/10 07:09:58;;;;;;;0.20;0.10;;;8.10;99.90;;;;;;21056853;28;20462;-71
2023/01/10 07:20:04;;;;;;;0.20;0.10;;;8.10;99.90;;;;;;21041772;28;20393;-73
2023/01/10 07:30:09;;;;;;;0.20;0.10;;;8.10;99.90;;;;;;21041476;28;21163;-72
2023/01/10 07:40:15;;;;;;;0.20;0.10;;;8.20;99.90;;;;;;21059987;28;20417;-71
2023/01/10 07:50:18;;;;;;;0.20;0.10;;;8.30;99.90;;;;;;21048927;28;20416;-72
2023/01/10 08:00:24;;;;;;;0.20;0.10;;;8.50;99.90;;;;;;21067838;28;20734;-69
2023/01/10 08:10:28;;;;;;;0.20;0.10;;;8.60;99.90;;;;;;21138911;28;20456;-71
2023/01/10 08:20:33;;;;;;;0.20;0.10;;;8.90;99.90;;;;;;21155778;28;20402;-70
2023/01/10 08:30:38;;;;;;;0.20;0.10;;;9.30;99.90;;;;;;21138511;28;20471;-66
2023/01/10 08:40:43;;;;;;;0.20;0.10;;;9.50;99.90;;;;;;21150796;28;20403;-70
2023/01/10 08:50:47;;;;;;;0.20;0.10;;;9.60;99.90;;;;;;21148367;28;20414;-70
2023/01/10 09:00:52;;;;;;;0.20;0.10;;;10.30;99.90;;;;;;21134996;28;20514;-71
2023/01/10 09:10:59;;;;;;;0.20;0.10;;;11.00;99.90;;;;;;21153135;28;20863;-70
2023/01/10 09:21:04;;;;;;;0.20;0.10;;;11.60;99.90;;;;;;21152327;28;20447;-70
2023/01/10 09:31:10;;;;;;;0.20;0.10;;;11.40;99.90;;;;;;21143577;28;20410;-71
2023/01/10 09:41:36;;;;;;;0.20;0.10;;;11.70;99.90;;;;;;21147834;28;20481;-71
2023/01/10 09:51:43;;;;;;;0.20;0.10;;;12.60;99.90;;;;;;21086159;28;20491;-71
2023/01/10 10:01:52;;;;;;;0.20;0.10;;;12.50;99.90;;;;;;21045769;28;20790;-71
2023/01/10 10:12:22;;;;;;;0.20;0.10;;;12.60;99.90;;;;;;21063224;28;20408;-70
2023/01/10 10:22:36;;;;;;;0.20;0.10;;;13.00;99.90;;;;;;21060750;28;20496;-70
2023/01/10 10:32:50;;;;;;;0.20;0.10;;;13.50;99.90;;;;;;21062553;28;20416;-69
2023/01/10 10:42:59;;;;;;;0.20;0.10;;;14.30;99.90;;;;;;21076902;28;20795;-70
2023/01/10 10:53:04;;;;;;;0.20;0.03;;;15.30;99.90;;;;;;21144529;28;20538;-67
2023/01/10 11:03:22;;;;;;;0.20;0.10;;;14.60;99.90;;;;;;21144600;28;21100;-67
2023/01/10 11:13:43;;;;;;;0.20;0.10;;;14.50;99.90;;;;;;21109521;28;20505;-67
2023/01/10 11:23:54;;;;;;;0.20;0.10;;;14.80;99.90;;;;;;21142382;28;20397;-67
2023/01/10 11:33:58;;;;;;;0.20;0.10;;;15.40;99.90;;;;;;21153116;28;20411;-68
2023/01/10 11:44:20;;;;;;;0.20;0.10;;;15.80;99.90;;;;;;21114805;28;20398;-68
2023/01/10 11:54:27;;;;;;;0.20;0.10;;;16.70;99.90;;;;;;21140814;28;20479;-68
2023/01/10 12:04:34;;;;;;;0.20;0.10;;;18.00;99.90;;;;;;21139855;28;20409;-69
2023/01/10 12:14:38;;;;;;;0.20;0.10;;;17.60;99.90;;;;;;21138095;28;20792;-67
2023/01/10 12:24:47;;;;;;;0.20;0.10;;;19.30;99.90;;;;;;21138343;28;20390;-68
2023/01/10 12:34:56;;;;;;;0.20;0.10;;;20.20;99.90;;;;;;21137896;28;20492;-69
2023/01/10 12:45:06;;;;;;;0.20;0.10;;;19.20;99.90;;;;;;21108957;28;20457;-68
2023/01/10 12:55:14;;;;;;;0.20;0.10;;;19.10;99.90;;;;;;21136807;28;20906;-69
2023/01/10 13:05:22;;;;;;;0.20;0.00;;;18.90;99.90;;;;;;21152128;28;20383;-69
2023/01/10 13:15:30;;;;;;;0.20;0.03;;;19.20;99.90;;;;;;21134125;28;20738;-69
2023/01/10 13:25:38;;;;;;;0.20;0.10;;;19.20;99.90;;;;;;21133007;28;21025;-67
2023/01/10 13:35:47;;;;;;;0.20;0.10;;;19.20;99.90;;;;;;21145983;28;21327;-70
2023/01/10 13:46:40;;;;;;;0.20;0.07;;;19.00;99.90;;;;;;21104747;28;20746;-67
2023/01/10 13:56:45;;;;;;;0.20;0.10;;;19.30;99.90;;;;;;21148591;28;20418;-67
2023/01/10 14:06:55;;;;;;;0.20;0.10;;;19.20;99.90;;;;;;21148323;28;20456;-68
2023/01/10 14:17:12;;;;;;;0.20;0.10;;;19.00;99.90;;;;;;21148401;28;20407;-69
2023/01/10 14:27:32;;;;;;;0.20;0.10;;;19.70;99.90;;;;;;21130906;27;20425;-66
2023/01/10 14:37:42;;;;;;;0.20;0.10;;;20.90;99.90;;;;;;21110501;28;20433;-65
2023/01/10 14:47:48;;;;;;;0.20;0.00;;;21.90;99.90;;;;;;21076693;27;20484;-68
2023/01/10 14:57:56;;;;;;;0.20;0.00;;;20.20;99.90;;;;;;21041266;28;20785;-67
2023/01/10 15:08:20;;;;;;;0.20;0.10;;;18.10;99.90;;;;;;21040586;28;20418;-67
2023/01/10 15:18:35;;;;;;;0.20;0.10;;;18.10;99.90;;;;;;21049722;28;21169;-69
2023/01/10 15:28:40;;;;;;;0.20;0.10;;;18.50;99.90;;;;;;21122460;28;20403;-68
2023/01/10 15:38:46;;;;;;;0.20;0.00;;;19.40;99.90;;;;;;21066542;28;20404;-66
2023/01/10 15:49:00;;;;;;;0.20;0.10;;;19.00;99.90;;;;;;21063657;28;20788;-70
2023/01/10 15:59:06;;;;;;;0.20;0.10;;;17.30;99.90;;;;;;21067268;28;20492;-68
2023/01/10 16:09:20;;;;;;;0.20;0.10;;;17.00;99.90;;;;;;21063155;28;20396;-67
2023/01/10 16:19:24;;;;;;;0.20;0.10;;;15.50;99.90;;;;;;21063326;28;20396;-67
2023/01/10 16:29:30;;;;;;;0.20;0.10;;;14.60;99.90;;;;;;21060545;28;20407;-67
2023/01/10 16:39:33;;;;;;;0.20;0.10;;;14.50;99.90;;;;;;21114154;28;20441;-68
2023/01/10 16:49:40;;;;;;;0.20;0.10;;;14.00;99.90;;;;;;21127463;28;20407;-72
2023/01/10 16:59:44;;;;;;;0.20;0.10;;;13.60;99.90;;;;;;21148806;28;20843;-68
2023/01/10 17:09:49;;;;;;;0.20;0.00;;;12.60;99.90;;;;;;21147306;28;20459;-68
2023/01/10 17:19:53;;;;;;;0.20;0.10;;;12.10;99.90;;;;;;21145020;28;20519;-68
2023/01/10 17:29:58;;;;;;;0.20;0.10;;;11.80;99.90;;;;;;21146273;28;20785;-68
2023/01/10 17:40:02;;;;;;;0.20;0.10;;;11.30;99.90;;;;;;21073103;28;20476;-70
2023/01/10 17:50:08;;;;;;;0.20;0.10;;;11.20;99.90;;;;;;21061308;28;20396;-68
2023/01/10 18:00:13;;;;;;;0.20;0.10;;;11.00;99.90;;;;;;21136785;28;20443;-69
2023/01/10 18:10:18;;;;;;;0.20;0.10;;;10.80;99.90;;;;;;21140747;28;20403;-68
2023/01/10 18:20:22;;;;;;;0.20;0.10;;;10.50;99.90;;;;;;21137318;28;20416;-68
2023/01/10 18:30:28;;;;;;;0.20;0.10;;;10.20;99.90;;;;;;21130093;28;21044;-69
2023/01/10 18:40:31;;;;;;;0.20;0.10;;;10.10;99.90;;;;;;21139825;28;20501;-68
2023/01/10 18:50:37;;;;;;;0.20;0.10;;;9.60;99.90;;;;;;21140775;28;20456;-68
2023/01/10 19:00:42;;;;;;;0.20;0.10;;;9.70;99.90;;;;;;21140953;28;20403;-69
2023/01/10 19:10:48;;;;;;;0.20;0.10;;;9.70;99.90;;;;;;21150012;27;20394;-69
2023/01/10 19:21:14;;;;;;;0.20;0.10;;;9.70;99.90;;;;;;21138242;28;20977;-70
2023/01/10 19:31:21;;;;;;;0.20;0.10;;;9.80;99.90;;;;;;21153111;28;21176;-68
2023/01/10 19:41:29;;;;;;;0.20;0.10;;;9.40;99.90;;;;;;21153792;28;20667;-68
2023/01/10 19:51:36;;;;;;;0.20;0.10;;;9.30;99.90;;;;;;21133333;28;20540;-68
2023/01/10 20:01:40;;;;;;;0.20;0.10;;;9.10;99.90;;;;;;21150730;28;20403;-68
2023/01/10 20:11:46;;;;;;;0.20;0.10;;;8.90;99.90;;;;;;21131257;28;20395;-69
2023/01/10 20:21:50;;;;;;;0.20;0.10;;;9.10;99.90;;;;;;21147681;28;20476;-69
2023/01/10 20:31:59;;;;;;;0.20;0.10;;;9.20;99.90;;;;;;21144210;28;20461;-68
2023/01/10 20:42:03;;;;;;;0.20;0.10;;;9.20;99.90;;;;;;21072792;28;20616;-68
2023/01/10 20:52:12;;;;;;;0.20;0.03;;;9.10;99.90;;;;;;21144016;28;20398;-70
2023/01/10 21:02:16;;;;;;;0.20;0.10;;;9.10;99.90;;;;;;21144319;28;20928;-69
2023/01/10 21:12:23;;;;;;;0.20;0.10;;;9.00;99.90;;;;;;21145628;28;20400;-69
2023/01/10 21:22:30;;;;;;;0.20;0.10;;;9.70;99.90;;;;;;21144626;28;20847;-69
2023/01/10 21:32:36;;;;;;;0.20;0.10;;;10.00;99.90;;;;;;21145769;28;20493;-70
2023/01/10 21:42:43;;;;;;;0.20;0.10;;;9.80;99.90;;;;;;21146842;28;20402;-75
2023/01/10 21:52:49;;;;;;;0.20;0.10;;;9.30;99.90;;;;;;21146282;28;20482;-69
2023/01/10 22:02:52;;;;;;;0.20;0.10;;;9.90;99.90;;;;;;21145689;28;20501;-70
2023/01/10 22:12:57;;;;;;;0.20;0.10;;;10.90;99.90;;;;;;21129832;28;20401;-70
2023/01/10 22:23:01;;;;;;;0.20;0.10;;;10.80;99.90;;;;;;21062012;28;20902;-70
2023/01/10 22:33:07;;;;;;;0.20;0.10;;;10.30;99.90;;;;;;21074629;28;20395;-71
2023/01/10 22:43:11;;;;;;;0.20;0.10;;;10.30;99.90;;;;;;21152329;28;20418;-70
2023/01/10 22:53:16;;;;;;;0.20;0.10;;;10.10;99.90;;;;;;21144065;28;20494;-70
2023/01/10 23:03:19;;;;;;;0.20;0.10;;;10.40;99.90;;;;;;21159154;28;20452;-69
2023/01/10 23:13:25;;;;;;;0.20;0.10;;;10.40;99.90;;;;;;21160315;28;20463;-68
2023/01/10 23:23:29;;;;;;;0.20;0.10;;;9.90;99.90;;;;;;21160199;28;20413;-70
2023/01/10 23:33:34;;;;;;;0.20;0.07;;;10.80;99.90;;;;;;21141915;28;20392;-70
2023/01/10 23:43:38;;;;;;;0.20;0.10;;;11.00;99.90;;;;;;21098625;28;20467;-70
2023/01/10 23:53:43;;;;;;;0.20;0.00;;;10.80;99.90;;;;;;21158162;28;20403;-70
